Time;durP1;ratioP1;P1;durP2;ratioP2;P2;SDS_P1;SDS_P2;PMS_P1;PMS_P2;Temp;Humidity;BMP_temperature;BMP_pressure;BME280_temperature;BME280_humidity;BME280_pressure;Samples;Min_cycle;Max_cycle;Signal;HPM_P1;HPM_P2
2022/07/19 00:01:24;;;;;;;18.67;7.03;;;;;;;;;;6158170;23;20101;-84
2022/07/19 00:03:53;;;;;;;9.82;7.35;;;;;;;;;;6157603;23;20045;-84
2022/07/19 00:06:20;;;;;;;16.38;6.95;;;;;;;;;;6158380;23;20152;-83
2022/07/19 00:08:47;;;;;;;10.57;7.13;;;;;;;;;;6159442;23;20026;-83
2022/07/19 00:11:17;;;;;;;8.93;6.50;;;;;;;;;;6157704;23;20033;-83
2022/07/19 00:13:44;;;;;;;11.07;6.40;;;;;;;;;;6159867;23;20077;-83
2022/07/19 00:16:11;;;;;;;14.50;6.78;;;;;;;;;;6160125;23;20021;-83
2022/07/19 00:18:42;;;;;;;12.90;6.80;;;;;;;;;;6159617;23;20751;-84
2022/07/19 00:21:09;;;;;;;8.65;6.97;;;;;;;;;;6159047;23;20092;-84
2022/07/19 00:23:40;;;;;;;10.13;6.20;;;;;;;;;;6157750;23;20026;-84
2022/07/19 00:26:07;;;;;;;8.40;6.80;;;;;;;;;;6157654;23;20046;-83
2022/07/19 00:28:35;;;;;;;12.75;6.45;;;;;;;;;;6158355;23;21041;-84
2022/07/19 00:31:04;;;;;;;8.82;5.80;;;;;;;;;;6160224;23;20018;-84
2022/07/19 00:33:31;;;;;;;11.48;6.15;;;;;;;;;;6160272;23;20388;-83
2022/07/19 00:35:58;;;;;;;10.85;6.00;;;;;;;;;;6164576;23;20448;-83
2022/07/19 00:38:26;;;;;;;13.80;6.28;;;;;;;;;;6162799;23;20026;-83
2022/07/19 00:40:53;;;;;;;10.07;6.40;;;;;;;;;;6161045;23;20077;-83
2022/07/19 00:43:23;;;;;;;10.38;6.25;;;;;;;;;;6164257;23;20711;-83
2022/07/19 00:45:51;;;;;;;8.63;6.28;;;;;;;;;;6164273;23;20096;-83
2022/07/19 00:48:18;;;;;;;15.13;6.68;;;;;;;;;;6158379;23;20033;-83
2022/07/19 00:50:45;;;;;;;15.45;6.55;;;;;;;;;;6159958;23;20030;-84
2022/07/19 00:53:14;;;;;;;11.88;6.20;;;;;;;;;;6159985;23;20167;-84
2022/07/19 00:55:44;;;;;;;8.57;6.28;;;;;;;;;;6157865;23;20054;-84
2022/07/19 00:58:13;;;;;;;9.32;6.10;;;;;;;;;;6157772;23;20030;-84
2022/07/19 01:00:41;;;;;;;9.60;6.28;;;;;;;;;;6159958;23;20025;-84
2022/07/19 01:03:08;;;;;;;9.00;6.15;;;;;;;;;;6159684;23;20060;-84
2022/07/19 01:05:35;;;;;;;9.30;6.93;;;;;;;;;;6157585;23;20109;-84
2022/07/19 01:08:03;;;;;;;8.60;6.30;;;;;;;;;;6159207;23;20030;-83
2022/07/19 01:10:30;;;;;;;8.02;6.18;;;;;;;;;;6156523;23;20467;-83
2022/07/19 01:12:57;;;;;;;12.23;6.47;;;;;;;;;;6159094;23;20456;-83
2022/07/19 01:15:25;;;;;;;8.30;5.88;;;;;;;;;;6158906;23;20050;-83
2022/07/19 01:17:53;;;;;;;11.90;6.25;;;;;;;;;;6157507;23;20058;-83
2022/07/19 01:20:23;;;;;;;8.20;5.95;;;;;;;;;;6159097;23;20089;-83
2022/07/19 01:22:56;;;;;;;10.13;6.60;;;;;;;;;;6159503;23;20030;-83
2022/07/19 01:25:24;;;;;;;12.95;7.20;;;;;;;;;;6158497;23;20865;-83
2022/07/19 01:27:51;;;;;;;13.00;7.97;;;;;;;;;;6160272;23;20026;-83
2022/07/19 01:30:21;;;;;;;14.98;7.90;;;;;;;;;;6160668;23;20526;-83
2022/07/19 01:32:49;;;;;;;15.10;8.55;;;;;;;;;;6159831;23;20033;-83
2022/07/19 01:35:16;;;;;;;12.65;7.35;;;;;;;;;;6157578;23;20570;-83
2022/07/19 01:37:43;;;;;;;13.30;6.78;;;;;;;;;;6159819;23;20117;-83
2022/07/19 01:40:12;;;;;;;14.07;7.03;;;;;;;;;;6160168;23;20056;-83
2022/07/19 01:42:41;;;;;;;13.35;7.22;;;;;;;;;;6160278;23;20427;-83
2022/07/19 01:45:10;;;;;;;10.10;7.07;;;;;;;;;;6158298;23;20036;-83
2022/07/19 01:47:37;;;;;;;11.57;8.20;;;;;;;;;;6160597;23;20037;-83
2022/07/19 01:50:05;;;;;;;13.60;8.35;;;;;;;;;;6162540;23;20113;-83
2022/07/19 01:52:32;;;;;;;11.68;7.07;;;;;;;;;;6164491;23;20030;-83
2022/07/19 01:55:00;;;;;;;12.38;7.63;;;;;;;;;;6160772;23;20345;-83
2022/07/19 01:57:28;;;;;;;19.10;8.43;;;;;;;;;;6161131;23;20053;-83
2022/07/19 01:59:55;;;;;;;9.18;6.75;;;;;;;;;;6160150;23;20475;-83
2022/07/19 02:02:22;;;;;;;13.48;7.55;;;;;;;;;;6158860;23;20546;-83
2022/07/19 02:04:49;;;;;;;10.20;7.43;;;;;;;;;;6158411;23;20024;-83
2022/07/19 02:07:17;;;;;;;9.68;7.28;;;;;;;;;;6159708;23;20673;-83
2022/07/19 02:09:45;;;;;;;12.15;7.40;;;;;;;;;;6158211;23;20017;-83
2022/07/19 02:12:12;;;;;;;12.15;6.88;;;;;;;;;;6157360;23;20787;-83
2022/07/19 02:14:39;;;;;;;9.45;6.78;;;;;;;;;;6158560;23;20026;-83
2022/07/19 02:17:06;;;;;;;9.55;6.93;;;;;;;;;;6158275;23;20097;-83
2022/07/19 02:19:34;;;;;;;9.35;6.72;;;;;;;;;;6158159;23;20033;-83
2022/07/19 02:22:01;;;;;;;10.85;7.13;;;;;;;;;;6159962;23;20022;-82
2022/07/19 02:24:28;;;;;;;10.38;6.82;;;;;;;;;;6158345;23;20487;-83
2022/07/19 02:26:55;;;;;;;9.05;6.70;;;;;;;;;;6158689;23;20056;-83
2022/07/19 02:29:24;;;;;;;11.38;6.95;;;;;;;;;;6159746;23;20022;-83
2022/07/19 02:31:51;;;;;;;8.70;6.50;;;;;;;;;;6158381;23;20022;-83
2022/07/19 02:34:19;;;;;;;9.77;6.85;;;;;;;;;;6158499;23;20045;-83
2022/07/19 02:36:46;;;;;;;11.50;7.22;;;;;;;;;;6158818;23;20784;-83
2022/07/19 02:39:13;;;;;;;12.68;7.07;;;;;;;;;;6160199;23;20071;-83
2022/07/19 02:41:40;;;;;;;9.57;6.82;;;;;;;;;;6160119;23;20102;-83
2022/07/19 02:44:07;;;;;;;8.93;6.50;;;;;;;;;;6160125;23;20018;-83
2022/07/19 02:46:35;;;;;;;10.85;7.15;;;;;;;;;;6158752;23;20081;-83
2022/07/19 02:49:03;;;;;;;10.77;6.72;;;;;;;;;;6159432;23;20022;-83
2022/07/19 02:51:33;;;;;;;10.60;7.45;;;;;;;;;;6158511;23;20022;-83
2022/07/19 02:54:00;;;;;;;11.38;6.90;;;;;;;;;;6158872;23;20746;-83
2022/07/19 02:56:28;;;;;;;9.63;6.70;;;;;;;;;;6158665;23;20033;-83
2022/07/19 02:58:55;;;;;;;7.93;6.10;;;;;;;;;;6157790;23;20486;-83
2022/07/19 03:01:22;;;;;;;10.98;6.28;;;;;;;;;;6158307;23;20029;-83
2022/07/19 03:03:50;;;;;;;9.80;7.13;;;;;;;;;;6158332;23;20028;-83
2022/07/19 03:06:18;;;;;;;12.38;6.60;;;;;;;;;;6160002;23;20022;-83
2022/07/19 03:08:46;;;;;;;11.75;6.60;;;;;;;;;;6158076;23;20026;-83
2022/07/19 03:11:13;;;;;;;10.30;7.13;;;;;;;;;;6159661;23;20120;-83
2022/07/19 03:13:41;;;;;;;10.38;6.70;;;;;;;;;;6158379;23;20029;-83
2022/07/19 03:16:08;;;;;;;10.57;6.88;;;;;;;;;;6158575;23;20073;-83
2022/07/19 03:18:35;;;;;;;10.30;6.40;;;;;;;;;;6158659;23;20329;-83
2022/07/19 03:21:06;;;;;;;14.88;7.07;;;;;;;;;;6160453;23;20081;-83
2022/07/19 03:23:34;;;;;;;14.35;7.85;;;;;;;;;;6159850;23;20026;-83
2022/07/19 03:26:05;;;;;;;10.73;7.43;;;;;;;;;;6158000;23;20030;-83
2022/07/19 03:28:32;;;;;;;13.65;7.75;;;;;;;;;;6159840;23;20080;-83
2022/07/19 03:30:59;;;;;;;12.30;7.78;;;;;;;;;;6160145;23;20049;-83
2022/07/19 03:33:28;;;;;;;16.23;7.95;;;;;;;;;;6159913;23;20132;-83
2022/07/19 03:35:56;;;;;;;13.30;7.82;;;;;;;;;;6159759;23;20038;-83
2022/07/19 03:38:23;;;;;;;14.52;8.35;;;;;;;;;;6159698;23;20456;-83
2022/07/19 03:40:50;;;;;;;14.73;8.43;;;;;;;;;;6160265;23;20081;-83
2022/07/19 03:43:18;;;;;;;13.52;8.98;;;;;;;;;;6158714;23;20018;-83
2022/07/19 03:45:45;;;;;;;15.05;8.73;;;;;;;;;;6161180;23;20057;-83
2022/07/19 03:48:13;;;;;;;21.05;9.82;;;;;;;;;;6160992;23;20022;-83
2022/07/19 03:50:40;;;;;;;22.60;8.95;;;;;;;;;;6159204;23;20689;-83
2022/07/19 03:53:07;;;;;;;17.80;9.30;;;;;;;;;;6160421;23;20029;-83
2022/07/19 03:55:35;;;;;;;16.88;8.90;;;;;;;;;;6160438;23;20058;-83
2022/07/19 03:58:02;;;;;;;18.25;8.35;;;;;;;;;;6161021;23;20069;-83
2022/07/19 04:00:29;;;;;;;15.55;8.23;;;;;;;;;;6160694;23;20010;-83
2022/07/19 04:02:56;;;;;;;15.77;7.72;;;;;;;;;;6160647;23;20767;-83
2022/07/19 04:05:24;;;;;;;14.38;7.72;;;;;;;;;;6158769;23;20046;-83
2022/07/19 04:07:51;;;;;;;13.00;8.18;;;;;;;;;;6158720;23;20057;-83
2022/07/19 04:10:18;;;;;;;17.02;8.73;;;;;;;;;;6158904;23;20168;-83
2022/07/19 04:12:45;;;;;;;13.05;7.97;;;;;;;;;;6158251;23;20022;-83
2022/07/19 04:15:13;;;;;;;17.05;8.80;;;;;;;;;;6160396;23;20452;-84
2022/07/19 04:17:40;;;;;;;17.17;8.48;;;;;;;;;;6158777;23;20018;-82
2022/07/19 04:20:07;;;;;;;16.95;8.90;;;;;;;;;;6159533;23;20022;-83
2022/07/19 04:22:38;;;;;;;18.75;9.75;;;;;;;;;;6159215;23;20068;-83
2022/07/19 04:25:07;;;;;;;13.68;8.00;;;;;;;;;;6160857;23;20018;-83
2022/07/19 04:27:34;;;;;;;16.52;8.65;;;;;;;;;;6160415;23;20026;-83
2022/07/19 04:30:01;;;;;;;13.57;8.60;;;;;;;;;;6160743;23;20026;-83
2022/07/19 04:32:30;;;;;;;17.30;8.93;;;;;;;;;;6160952;23;20026;-83
2022/07/19 04:34:57;;;;;;;14.32;8.32;;;;;;;;;;6158300;23;20022;-83
2022/07/19 04:37:24;;;;;;;14.55;8.30;;;;;;;;;;6158367;23;20014;-83
2022/07/19 04:39:54;;;;;;;14.40;8.38;;;;;;;;;;6158215;23;20026;-83
2022/07/19 04:42:21;;;;;;;17.42;8.43;;;;;;;;;;6157731;23;20695;-83
2022/07/19 04:44:49;;;;;;;13.85;8.30;;;;;;;;;;6158666;23;20040;-83
2022/07/19 04:47:16;;;;;;;13.38;8.57;;;;;;;;;;6160054;23;20061;-83
2022/07/19 04:49:43;;;;;;;15.73;9.05;;;;;;;;;;6158084;23;20114;-84
2022/07/19 04:52:10;;;;;;;14.20;8.75;;;;;;;;;;6159727;23;20121;-83
2022/07/19 04:54:37;;;;;;;10.30;8.82;;;;;;;;;;6158014;23;20037;-83
2022/07/19 04:57:04;;;;;;;13.60;9.45;;;;;;;;;;6159220;23;20049;-83
2022/07/19 04:59:32;;;;;;;12.73;9.13;;;;;;;;;;6158482;23;20018;-83
2022/07/19 05:01:59;;;;;;;15.32;10.43;;;;;;;;;;6156826;23;20022;-84
2022/07/19 05:04:26;;;;;;;12.20;9.68;;;;;;;;;;6159025;23;20061;-84
2022/07/19 05:06:56;;;;;;;13.20;9.02;;;;;;;;;;6157494;23;20789;-83
2022/07/19 05:09:25;;;;;;;13.60;8.80;;;;;;;;;;6157435;23;20028;-83
2022/07/19 05:11:52;;;;;;;13.02;8.93;;;;;;;;;;6158518;23;20030;-83
2022/07/19 05:14:20;;;;;;;14.75;8.57;;;;;;;;;;6157359;23;20482;-82
2022/07/19 05:16:49;;;;;;;15.63;9.38;;;;;;;;;;6158995;23;20025;-83
2022/07/19 05:19:17;;;;;;;14.60;9.40;;;;;;;;;;6157189;23;21041;-84
2022/07/19 05:21:44;;;;;;;13.70;9.20;;;;;;;;;;6157360;23;20033;-83
2022/07/19 05:24:11;;;;;;;13.95;9.80;;;;;;;;;;6157183;23;20777;-83
2022/07/19 05:26:38;;;;;;;15.35;10.27;;;;;;;;;;6156642;23;20045;-83
2022/07/19 05:29:06;;;;;;;14.40;9.57;;;;;;;;;;6156858;23;20460;-83
2022/07/19 05:31:36;;;;;;;12.55;9.48;;;;;;;;;;6158272;23;20029;-83
2022/07/19 05:34:03;;;;;;;18.95;9.73;;;;;;;;;;6158399;23;20030;-83
2022/07/19 05:36:31;;;;;;;17.83;9.18;;;;;;;;;;6158523;23;20022;-83
2022/07/19 05:39:00;;;;;;;12.88;10.05;;;;;;;;;;6157397;23;20026;-82
2022/07/19 05:41:27;;;;;;;23.70;9.40;;;;;;;;;;6158497;23;20988;-83
2022/07/19 05:43:54;;;;;;;27.83;12.05;;;;;;;;;;6159118;23;21056;-83
2022/07/19 05:46:22;;;;;;;20.13;11.32;;;;;;;;;;6158939;23;20100;-82
2022/07/19 05:48:49;;;;;;;20.52;12.27;;;;;;;;;;6158633;23;20101;-83
2022/07/19 05:51:16;;;;;;;19.65;12.80;;;;;;;;;;6158246;23;20057;-83
2022/07/19 05:53:44;;;;;;;21.00;13.32;;;;;;;;;;6158113;23;20029;-83
2022/07/19 05:56:11;;;;;;;15.63;11.57;;;;;;;;;;6159280;23;20910;-83
2022/07/19 05:58:38;;;;;;;19.00;12.45;;;;;;;;;;6158582;23;20110;-83
2022/07/19 06:01:18;;;;;;;22.73;12.35;;;;;;;;;;6156994;23;20353;-83
2022/07/19 06:03:50;;;;;;;21.17;12.40;;;;;;;;;;6158401;23;20034;-83
2022/07/19 06:06:26;;;;;;;19.75;12.02;;;;;;;;;;6158687;23;20033;-83
2022/07/19 06:08:53;;;;;;;20.13;11.63;;;;;;;;;;6156903;23;20018;-83
2022/07/19 06:11:23;;;;;;;15.02;10.25;;;;;;;;;;6158119;23;20552;-83
2022/07/19 06:13:53;;;;;;;28.95;11.93;;;;;;;;;;6158501;23;20030;-82
2022/07/19 06:16:21;;;;;;;19.52;12.38;;;;;;;;;;6157712;23;20018;-83
2022/07/19 06:18:50;;;;;;;19.10;11.82;;;;;;;;;;6157806;23;20377;-83
2022/07/19 06:21:22;;;;;;;18.27;11.38;;;;;;;;;;6158221;23;20527;-82
2022/07/19 06:23:52;;;;;;;26.00;12.93;;;;;;;;;;6158479;23;20026;-84
2022/07/19 06:26:19;;;;;;;17.08;10.52;;;;;;;;;;6157992;23;20652;-83
2022/07/19 06:28:52;;;;;;;16.25;10.63;;;;;;;;;;6159917;23;20460;-84
2022/07/19 06:31:19;;;;;;;19.00;11.00;;;;;;;;;;6158393;23;20110;-83
2022/07/19 06:33:47;;;;;;;19.10;10.32;;;;;;;;;;6158355;23;20026;-83
2022/07/19 06:36:15;;;;;;;17.25;10.20;;;;;;;;;;6159801;23;20065;-83
2022/07/19 06:38:48;;;;;;;20.77;11.18;;;;;;;;;;6159668;23;20606;-83
2022/07/19 06:41:20;;;;;;;17.67;8.90;;;;;;;;;;6157630;23;20025;-84
2022/07/19 06:43:57;;;;;;;17.67;8.98;;;;;;;;;;6158073;23;20033;-83
2022/07/19 06:46:26;;;;;;;18.73;9.35;;;;;;;;;;6157221;23;20018;-84
2022/07/19 06:48:54;;;;;;;16.05;9.13;;;;;;;;;;6157287;23;20098;-84
2022/07/19 06:51:29;;;;;;;14.27;8.23;;;;;;;;;;6157303;23;20100;-83
2022/07/19 06:53:59;;;;;;;13.98;7.82;;;;;;;;;;6157455;23;20034;-84
2022/07/19 06:56:34;;;;;;;12.38;7.60;;;;;;;;;;6158134;23;20049;-83
2022/07/19 06:59:02;;;;;;;11.70;7.13;;;;;;;;;;6158024;23;21299;-83
2022/07/19 07:01:36;;;;;;;19.83;7.45;;;;;;;;;;6157570;23;20022;-84
2022/07/19 07:04:07;;;;;;;11.77;7.63;;;;;;;;;;6159744;23;20382;-84
2022/07/19 07:06:40;;;;;;;12.10;7.50;;;;;;;;;;6157871;23;20133;-84
2022/07/19 07:09:12;;;;;;;12.95;6.82;;;;;;;;;;6158058;23;20021;-84
2022/07/19 07:11:42;;;;;;;10.47;6.20;;;;;;;;;;6159242;23;20037;-84
2022/07/19 07:14:15;;;;;;;9.27;5.90;;;;;;;;;;6158238;23;20030;-83
2022/07/19 07:16:42;;;;;;;11.90;6.10;;;;;;;;;;6158952;23;20022;-84
2022/07/19 07:19:16;;;;;;;8.68;6.15;;;;;;;;;;6158581;23;20022;-84
2022/07/19 07:21:46;;;;;;;13.98;6.47;;;;;;;;;;6156608;23;20021;-84
2022/07/19 07:24:19;;;;;;;15.38;5.18;;;;;;;;;;6157224;23;20085;-84
2022/07/19 07:26:47;;;;;;;10.25;5.50;;;;;;;;;;6159028;23;20029;-83
2022/07/19 07:29:16;;;;;;;13.30;5.43;;;;;;;;;;6157857;23;20014;-84
2022/07/19 07:31:44;;;;;;;12.93;5.35;;;;;;;;;;6156857;23;20077;-84
2022/07/19 07:34:24;;;;;;;16.00;5.63;;;;;;;;;;6157537;23;20034;-83
2022/07/19 07:37:05;;;;;;;10.68;5.43;;;;;;;;;;6159168;23;20049;-84
2022/07/19 07:39:35;;;;;;;15.93;5.55;;;;;;;;;;6158462;23;20415;-84
2022/07/19 07:42:04;;;;;;;14.95;6.05;;;;;;;;;;6157193;23;20109;-85
2022/07/19 07:44:49;;;;;;;8.15;4.75;;;;;;;;;;6156743;23;20021;-84
2022/07/19 07:47:16;;;;;;;15.40;4.53;;;;;;;;;;6159016;23;20052;-84
2022/07/19 07:49:50;;;;;;;9.90;4.47;;;;;;;;;;6158268;23;20065;-83
2022/07/19 07:52:25;;;;;;;16.98;4.32;;;;;;;;;;6159031;23;20813;-84
2022/07/19 07:54:52;;;;;;;6.53;3.63;;;;;;;;;;6159426;23;20030;-83
2022/07/19 07:57:45;;;;;;;10.43;3.95;;;;;;;;;;6157202;23;20440;-84
2022/07/19 08:00:13;;;;;;;10.10;3.50;;;;;;;;;;6157819;23;20018;-84
2022/07/19 08:02:57;;;;;;;10.52;3.70;;;;;;;;;;6158308;23;20022;-83
2022/07/19 08:05:24;;;;;;;8.20;3.70;;;;;;;;;;6158724;23;20034;-84
2022/07/19 08:07:53;;;;;;;9.38;3.75;;;;;;;;;;6157370;23;20102;-84
2022/07/19 08:10:36;;;;;;;11.80;3.57;;;;;;;;;;6157121;23;20056;-84
2022/07/19 08:13:03;;;;;;;10.02;3.92;;;;;;;;;;6157576;23;20089;-84
2022/07/19 08:15:42;;;;;;;8.73;3.80;;;;;;;;;;6157802;23;20034;-84
2022/07/19 08:18:11;;;;;;;16.25;3.90;;;;;;;;;;6157932;23;20022;-84
2022/07/19 08:20:39;;;;;;;10.95;3.85;;;;;;;;;;6157615;23;20028;-84
2022/07/19 08:23:06;;;;;;;8.38;3.30;;;;;;;;;;6156883;23;20028;-84
2022/07/19 08:25:42;;;;;;;9.90;3.97;;;;;;;;;;6157785;23;20022;-83
2022/07/19 08:28:11;;;;;;;8.57;3.42;;;;;;;;;;6157958;23;20029;-84
2022/07/19 08:30:45;;;;;;;11.35;3.60;;;;;;;;;;6157539;23;20022;-84
2022/07/19 08:33:40;;;;;;;5.80;2.55;;;;;;;;;;6158337;23;20026;-84
2022/07/19 08:36:11;;;;;;;6.57;2.95;;;;;;;;;;6159420;23;20101;-84
2022/07/19 08:38:58;;;;;;;5.57;2.67;;;;;;;;;;6158308;23;20379;-85
2022/07/19 08:41:26;;;;;;;7.47;3.25;;;;;;;;;;6157926;23;20018;-85
2022/07/19 08:43:54;;;;;;;15.90;3.22;;;;;;;;;;6158840;23;20026;-84
2022/07/19 08:46:24;;;;;;;6.43;2.90;;;;;;;;;;6156065;23;21044;-84
2022/07/19 08:48:51;;;;;;;8.77;2.50;;;;;;;;;;6156155;23;20057;-84
2022/07/19 08:51:20;;;;;;;8.35;2.67;;;;;;;;;;6158577;23;20018;-84
2022/07/19 08:54:03;;;;;;;6.00;2.80;;;;;;;;;;6156887;23;20022;-84
2022/07/19 08:59:17;;;;;;;8.07;2.65;;;;;;;;;;6159715;23;20250;-84
2022/07/19 09:01:44;;;;;;;12.30;3.28;;;;;;;;;;6157998;23;20021;-84
2022/07/19 09:04:16;;;;;;;9.13;2.53;;;;;;;;;;6159657;23;20032;-84
2022/07/19 09:06:47;;;;;;;6.68;2.63;;;;;;;;;;6161481;23;20077;-82
2022/07/19 09:09:16;;;;;;;8.93;3.05;;;;;;;;;;6162348;23;20913;-84
2022/07/19 09:11:51;;;;;;;8.88;2.80;;;;;;;;;;6159181;23;20021;-84
2022/07/19 09:14:44;;;;;;;9.65;2.67;;;;;;;;;;6156650;23;20030;-85
2022/07/19 09:17:19;;;;;;;12.55;3.10;;;;;;;;;;6156375;23;20105;-84
2022/07/19 09:19:52;;;;;;;8.95;2.80;;;;;;;;;;6157315;23;20476;-84
2022/07/19 09:22:20;;;;;;;10.80;2.90;;;;;;;;;;6156906;23;20022;-84
2022/07/19 09:24:55;;;;;;;9.23;3.00;;;;;;;;;;6156964;23;20379;-85
2022/07/19 09:27:25;;;;;;;7.00;2.42;;;;;;;;;;6157207;23;20022;-84
2022/07/19 09:29:56;;;;;;;8.02;3.10;;;;;;;;;;6158221;23;20018;-84
2022/07/19 09:32:27;;;;;;;13.45;2.90;;;;;;;;;;6157194;23;20042;-84
2022/07/19 09:34:54;;;;;;;8.27;2.60;;;;;;;;;;6158003;23;20081;-84
2022/07/19 09:37:28;;;;;;;7.78;2.70;;;;;;;;;;6156966;23;20728;-84
2022/07/19 09:40:04;;;;;;;12.85;2.85;;;;;;;;;;6155959;23;20026;-82
2022/07/19 09:42:41;;;;;;;11.57;3.10;;;;;;;;;;6156594;23;20065;-84
2022/07/19 09:45:14;;;;;;;8.82;3.22;;;;;;;;;;6157886;23;20045;-84
2022/07/19 09:47:50;;;;;;;9.43;2.90;;;;;;;;;;6158778;23;20104;-84
2022/07/19 09:50:18;;;;;;;10.48;3.03;;;;;;;;;;6157103;23;20033;-82
2022/07/19 09:52:47;;;;;;;10.55;3.10;;;;;;;;;;6156835;23;20029;-82
2022/07/19 09:55:17;;;;;;;6.63;2.55;;;;;;;;;;6156630;23;20089;-82
2022/07/19 09:57:52;;;;;;;7.10;2.85;;;;;;;;;;6159337;23;20033;-83
2022/07/19 10:00:25;;;;;;;5.72;2.42;;;;;;;;;;6153238;23;20029;-82
2022/07/19 10:02:57;;;;;;;5.65;2.80;;;;;;;;;;6157655;23;20467;-82
2022/07/19 10:05:34;;;;;;;7.68;2.47;;;;;;;;;;6156809;23;20018;-83
2022/07/19 10:08:06;;;;;;;7.93;2.70;;;;;;;;;;6159002;23;20038;-82
2022/07/19 10:10:33;;;;;;;5.93;2.35;;;;;;;;;;6157179;23;20030;-82
2022/07/19 10:13:03;;;;;;;12.70;3.00;;;;;;;;;;6157529;23;20101;-84
2022/07/19 10:15:32;;;;;;;6.25;2.60;;;;;;;;;;6157544;23;20018;-82
2022/07/19 10:18:14;;;;;;;8.18;2.22;;;;;;;;;;6157013;23;20096;-82
2022/07/19 10:21:02;;;;;;;5.03;2.20;;;;;;;;;;6156010;23;20456;-82
2022/07/19 10:23:34;;;;;;;7.57;2.60;;;;;;;;;;6157646;23;20105;-82
2022/07/19 10:26:05;;;;;;;6.15;2.65;;;;;;;;;;6158056;23;20037;-82
2022/07/19 10:28:37;;;;;;;9.23;2.25;;;;;;;;;;6157602;23;20022;-82
2022/07/19 10:31:27;;;;;;;7.50;2.75;;;;;;;;;;6157139;23;20468;-82
2022/07/19 10:34:00;;;;;;;6.35;2.22;;;;;;;;;;6156866;23;20464;-82
2022/07/19 10:36:33;;;;;;;3.67;2.10;;;;;;;;;;6157567;23;20017;-82
2022/07/19 10:39:24;;;;;;;4.65;2.05;;;;;;;;;;6159640;23;20022;-82
2022/07/19 10:42:14;;;;;;;11.70;2.40;;;;;;;;;;6158038;23;20077;-85
2022/07/19 10:44:57;;;;;;;4.15;2.20;;;;;;;;;;6159384;23;20044;-84
2022/07/19 10:47:39;;;;;;;6.38;2.40;;;;;;;;;;6157877;23;20022;-84
2022/07/19 10:50:14;;;;;;;9.15;2.20;;;;;;;;;;6158002;23;20030;-82
2022/07/19 10:52:52;;;;;;;11.68;2.42;;;;;;;;;;6160030;23;20415;-84
2022/07/19 10:55:38;;;;;;;6.43;2.25;;;;;;;;;;6157714;23;20026;-81
2022/07/19 10:58:10;;;;;;;4.97;2.03;;;;;;;;;;6157386;23;20097;-82
2022/07/19 11:00:50;;;;;;;5.13;2.15;;;;;;;;;;6158075;23;20085;-82
2022/07/19 11:03:49;;;;;;;5.68;2.20;;;;;;;;;;6157763;23;20121;-82
2022/07/19 11:06:24;;;;;;;12.05;2.20;;;;;;;;;;6138975;23;20620;-82
2022/07/19 11:08:57;;;;;;;8.23;2.30;;;;;;;;;;6158003;23;20022;-82
2022/07/19 11:11:46;;;;;;;8.70;2.45;;;;;;;;;;6157358;23;20022;-83
2022/07/19 11:14:21;;;;;;;6.97;2.20;;;;;;;;;;6157709;23;20085;-82
2022/07/19 11:16:59;;;;;;;8.05;2.40;;;;;;;;;;6156699;23;20105;-82
2022/07/19 11:19:38;;;;;;;5.93;1.90;;;;;;;;;;6157515;23;20053;-82
2022/07/19 11:22:11;;;;;;;7.43;2.30;;;;;;;;;;6159117;23;20037;-82
2022/07/19 11:25:06;;;;;;;11.32;2.13;;;;;;;;;;6156809;23;20744;-85
2022/07/19 11:27:49;;;;;;;8.30;2.42;;;;;;;;;;6017166;23;20098;-85
2022/07/19 11:33:16;;;;;;;7.75;2.08;;;;;;;;;;6038653;23;20038;-85
2022/07/19 11:36:01;;;;;;;5.82;2.03;;;;;;;;;;6038979;23;20402;-82
2022/07/19 11:39:03;;;;;;;4.88;2.05;;;;;;;;;;6039076;23;20023;-84
2022/07/19 11:41:41;;;;;;;7.65;1.92;;;;;;;;;;6039652;23;20024;-84
2022/07/19 11:44:17;;;;;;;7.97;2.00;;;;;;;;;;6039181;23;20024;-84
2022/07/19 11:46:45;;;;;;;10.98;1.80;;;;;;;;;;6037828;23;20055;-83
2022/07/19 11:49:43;;;;;;;5.82;1.90;;;;;;;;;;6038325;23;20024;-81
2022/07/19 11:52:13;;;;;;;6.75;2.05;;;;;;;;;;5998221;23;20059;-81
2022/07/19 11:55:01;;;;;;;4.32;2.08;;;;;;;;;;6037451;23;20027;-84
2022/07/19 11:57:46;;;;;;;6.28;2.03;;;;;;;;;;6036782;23;20028;-84
2022/07/19 12:00:27;;;;;;;7.20;2.40;;;;;;;;;;6037237;23;20023;-84
2022/07/19 12:03:02;;;;;;;4.68;2.03;;;;;;;;;;6036147;23;20119;-83
2022/07/19 12:05:36;;;;;;;6.55;1.85;;;;;;;;;;6149643;23;20046;-81
2022/07/19 12:08:10;;;;;;;7.47;2.50;;;;;;;;;;6156576;23;20045;-84
2022/07/19 12:10:40;;;;;;;5.47;2.20;;;;;;;;;;6156935;23;20037;-83
2022/07/19 12:16:10;;;;;;;6.82;2.10;;;;;;;;;;6158986;23;20033;-83
2022/07/19 12:18:54;;;;;;;9.65;2.17;;;;;;;;;;6156644;23;20122;-83
2022/07/19 12:21:37;;;;;;;6.07;1.90;;;;;;;;;;6157513;23;20715;-83
2022/07/19 12:24:14;;;;;;;5.70;2.00;;;;;;;;;;6159428;23;20053;-83
2022/07/19 12:27:04;;;;;;;9.13;2.15;;;;;;;;;;6157227;23;20040;-83
2022/07/19 12:29:42;;;;;;;4.32;1.75;;;;;;;;;;6157692;23;20018;-83
2022/07/19 12:32:13;;;;;;;5.63;1.98;;;;;;;;;;6157858;23;20026;-84
2022/07/19 12:34:43;;;;;;;10.40;2.37;;;;;;;;;;6159375;23;20468;-81
2022/07/19 12:37:20;;;;;;;10.60;2.40;;;;;;;;;;6157902;23;20242;-83
2022/07/19 12:40:01;;;;;;;12.55;2.30;;;;;;;;;;6157441;23;20029;-83
2022/07/19 12:42:44;;;;;;;5.80;2.20;;;;;;;;;;6159132;23;20448;-83
2022/07/19 12:45:21;;;;;;;6.80;2.25;;;;;;;;;;6157477;23;20073;-83
2022/07/19 12:47:50;;;;;;;8.45;2.42;;;;;;;;;;6157738;23;20826;-83
2022/07/19 12:50:26;;;;;;;8.75;2.10;;;;;;;;;;6157722;23;20022;-85
2022/07/19 12:52:54;;;;;;;6.55;2.70;;;;;;;;;;6157469;23;20029;-83
2022/07/19 12:55:30;;;;;;;7.95;2.40;;;;;;;;;;6157776;23;20026;-84
2022/07/19 12:58:00;;;;;;;8.70;2.35;;;;;;;;;;6157213;23;20022;-84
2022/07/19 13:00:29;;;;;;;11.73;2.53;;;;;;;;;;6157869;23;20097;-84
2022/07/19 13:03:01;;;;;;;5.00;2.10;;;;;;;;;;6157335;23;20731;-84
2022/07/19 13:05:29;;;;;;;;;;;;;;;;;;6158651;23;20026;-82
2022/07/19 13:08:06;;;;;;;10.45;2.15;;;;;;;;;;6156012;23;42997;-82
2022/07/19 13:10:51;;;;;;;14.77;2.33;;;;;;;;;;6154014;23;20502;-83
2022/07/19 13:13:19;;;;;;;6.47;2.23;;;;;;;;;;6159031;23;20870;-83
2022/07/19 13:15:48;;;;;;;13.88;2.47;;;;;;;;;;6158941;23;20026;-83
2022/07/19 13:18:15;;;;;;;7.43;2.30;;;;;;;;;;6158675;23;20026;-84
2022/07/19 13:20:42;;;;;;;14.57;2.55;;;;;;;;;;6157684;23;20022;-83
2022/07/19 13:23:12;;;;;;;11.85;1.92;;;;;;;;;;6157708;23;20344;-83
2022/07/19 13:25:39;;;;;;;9.90;2.80;;;;;;;;;;6158779;23;20018;-86
2022/07/19 13:28:10;;;;;;;6.25;2.50;;;;;;;;;;6157331;23;20022;-83
2022/07/19 13:30:37;;;;;;;6.93;2.42;;;;;;;;;;6159141;23;20022;-83
2022/07/19 13:33:07;;;;;;;6.20;2.20;;;;;;;;;;6158712;23;20026;-83
2022/07/19 13:35:35;;;;;;;3.72;1.92;;;;;;;;;;6157556;23;20809;-83
2022/07/19 13:38:06;;;;;;;11.30;2.38;;;;;;;;;;6157881;23;20102;-83
2022/07/19 13:40:33;;;;;;;5.50;2.20;;;;;;;;;;6157985;23;20049;-83
2022/07/19 13:43:02;;;;;;;7.68;2.30;;;;;;;;;;6158372;23;20022;-83
2022/07/19 13:45:30;;;;;;;7.53;1.98;;;;;;;;;;6158500;23;20022;-83
2022/07/19 13:47:57;;;;;;;7.00;2.10;;;;;;;;;;6158583;23;20018;-83
2022/07/19 13:50:28;;;;;;;3.80;2.03;;;;;;;;;;6160225;23;20052;-81
2022/07/19 13:52:56;;;;;;;6.35;2.25;;;;;;;;;;6158214;23;20069;-83
2022/07/19 13:55:23;;;;;;;8.43;2.20;;;;;;;;;;6159855;23;20483;-83
2022/07/19 13:57:57;;;;;;;10.43;2.28;;;;;;;;;;6160096;23;20030;-81
2022/07/19 14:00:27;;;;;;;10.63;2.22;;;;;;;;;;6157570;23;20759;-83
2022/07/19 14:02:54;;;;;;;6.07;2.25;;;;;;;;;;6159447;23;20026;-83
2022/07/19 14:05:22;;;;;;;5.78;2.53;;;;;;;;;;6159433;23;20022;-83
2022/07/19 14:07:50;;;;;;;8.00;2.00;;;;;;;;;;6153390;23;20345;-83
2022/07/19 14:10:21;;;;;;;5.18;2.13;;;;;;;;;;6153309;23;20803;-84
2022/07/19 14:12:50;;;;;;;7.97;2.20;;;;;;;;;;6156080;23;20022;-83
2022/07/19 14:15:37;;;;;;;11.93;2.33;;;;;;;;;;6155621;23;20037;-83
2022/07/19 14:18:07;;;;;;;9.40;2.33;;;;;;;;;;6155237;23;20041;-83
2022/07/19 14:20:35;;;;;;;9.63;2.47;;;;;;;;;;6157607;23;20022;-83
2022/07/19 14:23:05;;;;;;;14.68;2.45;;;;;;;;;;6156703;23;20028;-83
2022/07/19 14:25:35;;;;;;;2.88;1.90;;;;;;;;;;6155245;23;20045;-83
2022/07/19 14:28:02;;;;;;;12.05;2.60;;;;;;;;;;6156286;23;20038;-83
2022/07/19 14:30:31;;;;;;;5.95;2.50;;;;;;;;;;6157109;23;20037;-83
2022/07/19 14:32:59;;;;;;;8.65;2.60;;;;;;;;;;6157286;23;20018;-83
2022/07/19 14:35:26;;;;;;;7.88;2.35;;;;;;;;;;6156733;23;20416;-83
2022/07/19 14:37:54;;;;;;;12.07;2.55;;;;;;;;;;6156120;23;20022;-83
2022/07/19 14:40:21;;;;;;;6.50;2.47;;;;;;;;;;6155685;23;20050;-83
2022/07/19 14:42:48;;;;;;;6.78;1.90;;;;;;;;;;6156612;23;20049;-83
2022/07/19 14:45:16;;;;;;;4.22;2.10;;;;;;;;;;6156991;23;20077;-83
2022/07/19 14:47:43;;;;;;;8.75;2.80;;;;;;;;;;6158136;23;20030;-83
2022/07/19 14:50:22;;;;;;;6.50;2.40;;;;;;;;;;6156598;23;20030;-84
2022/07/19 14:52:49;;;;;;;6.75;2.35;;;;;;;;;;6155890;23;20467;-83
2022/07/19 14:55:19;;;;;;;10.85;2.60;;;;;;;;;;6154926;23;20033;-83
2022/07/19 14:57:46;;;;;;;8.73;2.13;;;;;;;;;;6155264;23;20030;-84
2022/07/19 15:00:19;;;;;;;9.38;2.83;;;;;;;;;;6155608;23;20026;-84
2022/07/19 15:02:50;;;;;;;7.63;2.50;;;;;;;;;;6156011;23;20014;-83
2022/07/19 15:05:20;;;;;;;9.50;2.40;;;;;;;;;;6157288;23;20029;-83
2022/07/19 15:07:49;;;;;;;7.65;2.13;;;;;;;;;;6153724;23;20032;-84